sensor_id;sensor_type;location;lat;lon;timestamp;P1;durP1;ratioP1;P2;durP2;ratioP2
81386;SDS011;70842;50.744;7.114;2024-03-17T00:02:06;9.82;;;8.82;;
81386;SDS011;70842;50.744;7.114;2024-03-17T00:04:32;10.25;;;8.43;;
81386;SDS011;70842;50.744;7.114;2024-03-17T00:06:58;12.02;;;11.05;;
81386;SDS011;70842;50.744;7.114;2024-03-17T00:09:24;10.00;;;9.02;;
81386;SDS011;70842;50.744;7.114;2024-03-17T00:11:50;12.13;;;11.02;;
81386;SDS011;70842;50.744;7.114;2024-03-17T00:14:15;9.40;;;8.52;;
81386;SDS011;70842;50.744;7.114;2024-03-17T00:16:43;10.85;;;9.93;;
81386;SDS011;70842;50.744;7.114;2024-03-17T00:19:09;10.77;;;9.55;;
81386;SDS011;70842;50.744;7.114;2024-03-17T00:21:35;10.68;;;9.75;;
81386;SDS011;70842;50.744;7.114;2024-03-17T00:24:01;11.93;;;10.90;;
81386;SDS011;70842;50.744;7.114;2024-03-17T00:26:28;14.57;;;13.50;;
81386;SDS011;70842;50.744;7.114;2024-03-17T00:28:54;9.95;;;8.38;;
81386;SDS011;70842;50.744;7.114;2024-03-17T00:31:20;9.95;;;9.02;;
81386;SDS011;70842;50.744;7.114;2024-03-17T00:33:46;12.15;;;11.25;;
81386;SDS011;70842;50.744;7.114;2024-03-17T00:36:11;11.95;;;10.95;;
81386;SDS011;70842;50.744;7.114;2024-03-17T00:38:37;15.68;;;14.55;;
81386;SDS011;70842;50.744;7.114;2024-03-17T00:41:03;13.82;;;12.75;;
81386;SDS011;70842;50.744;7.114;2024-03-17T00:43:29;10.63;;;9.63;;
81386;SDS011;70842;50.744;7.114;2024-03-17T00:45:54;13.02;;;11.95;;
81386;SDS011;70842;50.744;7.114;2024-03-17T00:48:20;12.77;;;11.90;;
81386;SDS011;70842;50.744;7.114;2024-03-17T00:50:46;11.52;;;10.43;;
81386;SDS011;70842;50.744;7.114;2024-03-17T00:53:11;13.98;;;12.85;;
81386;SDS011;70842;50.744;7.114;2024-03-17T00:55:37;15.05;;;13.95;;
81386;SDS011;70842;50.744;7.114;2024-03-17T00:58:02;14.63;;;13.48;;
81386;SDS011;70842;50.744;7.114;2024-03-17T01:00:28;12.20;;;11.23;;
81386;SDS011;70842;50.744;7.114;2024-03-17T01:02:54;11.98;;;10.90;;
81386;SDS011;70842;50.744;7.114;2024-03-17T01:05:19;12.98;;;11.80;;
81386;SDS011;70842;50.744;7.114;2024-03-17T01:07:45;13.05;;;11.98;;
81386;SDS011;70842;50.744;7.114;2024-03-17T01:10:12;11.05;;;10.13;;
81386;SDS011;70842;50.744;7.114;2024-03-17T01:12:38;12.02;;;11.07;;
81386;SDS011;70842;50.744;7.114;2024-03-17T01:15:05;11.93;;;10.77;;
81386;SDS011;70842;50.744;7.114;2024-03-17T01:17:31;12.77;;;10.85;;
81386;SDS011;70842;50.744;7.114;2024-03-17T01:19:56;13.23;;;12.23;;
81386;SDS011;70842;50.744;7.114;2024-03-17T01:22:22;11.93;;;11.02;;
81386;SDS011;70842;50.744;7.114;2024-03-17T01:24:47;12.52;;;11.52;;
81386;SDS011;70842;50.744;7.114;2024-03-17T01:27:13;13.02;;;11.90;;
81386;SDS011;70842;50.744;7.114;2024-03-17T01:29:44;12.00;;;10.90;;
81386;SDS011;70842;50.744;7.114;2024-03-17T01:32:09;13.77;;;12.70;;
81386;SDS011;70842;50.744;7.114;2024-03-17T01:34:36;15.32;;;14.27;;
81386;SDS011;70842;50.744;7.114;2024-03-17T01:37:05;13.38;;;12.25;;
81386;SDS011;70842;50.744;7.114;2024-03-17T01:39:30;11.25;;;10.27;;
81386;SDS011;70842;50.744;7.114;2024-03-17T01:41:57;10.10;;;9.30;;
81386;SDS011;70842;50.744;7.114;2024-03-17T01:44:24;11.38;;;10.18;;
81386;SDS011;70842;50.744;7.114;2024-03-17T01:46:52;11.85;;;10.85;;
81386;SDS011;70842;50.744;7.114;2024-03-17T01:49:18;9.73;;;8.90;;
81386;SDS011;70842;50.744;7.114;2024-03-17T01:51:46;12.27;;;11.07;;
81386;SDS011;70842;50.744;7.114;2024-03-17T01:54:13;10.43;;;9.43;;
81386;SDS011;70842;50.744;7.114;2024-03-17T01:56:39;8.32;;;7.35;;
81386;SDS011;70842;50.744;7.114;2024-03-17T01:59:05;9.98;;;8.98;;
81386;SDS011;70842;50.744;7.114;2024-03-17T02:01:31;8.55;;;7.32;;
81386;SDS011;70842;50.744;7.114;2024-03-17T02:03:57;10.95;;;9.10;;
81386;SDS011;70842;50.744;7.114;2024-03-17T02:06:24;10.27;;;9.48;;
81386;SDS011;70842;50.744;7.114;2024-03-17T02:08:50;14.40;;;13.15;;
81386;SDS011;70842;50.744;7.114;2024-03-17T02:11:32;10.52;;;9.70;;
81386;SDS011;70842;50.744;7.114;2024-03-17T02:14:01;9.48;;;8.60;;
81386;SDS011;70842;50.744;7.114;2024-03-17T02:16:27;9.02;;;8.13;;
81386;SDS011;70842;50.744;7.114;2024-03-17T02:18:54;9.75;;;8.82;;
81386;SDS011;70842;50.744;7.114;2024-03-17T02:21:20;9.75;;;8.82;;
81386;SDS011;70842;50.744;7.114;2024-03-17T02:23:48;12.98;;;9.20;;
81386;SDS011;70842;50.744;7.114;2024-03-17T02:26:14;10.35;;;9.50;;
81386;SDS011;70842;50.744;7.114;2024-03-17T02:28:40;13.43;;;12.43;;
81386;SDS011;70842;50.744;7.114;2024-03-17T02:31:07;9.80;;;9.02;;
81386;SDS011;70842;50.744;7.114;2024-03-17T02:33:33;9.38;;;8.57;;
81386;SDS011;70842;50.744;7.114;2024-03-17T02:35:59;10.02;;;9.18;;
81386;SDS011;70842;50.744;7.114;2024-03-17T02:38:25;10.68;;;9.77;;
81386;SDS011;70842;50.744;7.114;2024-03-17T02:41:09;12.75;;;11.73;;
81386;SDS011;70842;50.744;7.114;2024-03-17T02:43:35;11.20;;;10.27;;
81386;SDS011;70842;50.744;7.114;2024-03-17T02:46:01;10.60;;;9.70;;
81386;SDS011;70842;50.744;7.114;2024-03-17T02:48:30;10.80;;;9.80;;
81386;SDS011;70842;50.744;7.114;2024-03-17T02:50:56;10.48;;;9.48;;
81386;SDS011;70842;50.744;7.114;2024-03-17T02:53:22;11.63;;;10.65;;
81386;SDS011;70842;50.744;7.114;2024-03-17T02:58:20;10.55;;;9.50;;
81386;SDS011;70842;50.744;7.114;2024-03-17T03:00:45;9.57;;;8.68;;
81386;SDS011;70842;50.744;7.114;2024-03-17T03:03:11;10.48;;;9.48;;
81386;SDS011;70842;50.744;7.114;2024-03-17T03:05:36;10.45;;;9.57;;
81386;SDS011;70842;50.744;7.114;2024-03-17T03:08:03;12.95;;;11.95;;
81386;SDS011;70842;50.744;7.114;2024-03-17T03:10:29;17.15;;;15.95;;
81386;SDS011;70842;50.744;7.114;2024-03-17T03:12:55;11.75;;;10.75;;
81386;SDS011;70842;50.744;7.114;2024-03-17T03:15:21;11.48;;;10.27;;
81386;SDS011;70842;50.744;7.114;2024-03-17T03:17:46;10.88;;;9.85;;
81386;SDS011;70842;50.744;7.114;2024-03-17T03:20:12;11.88;;;10.77;;
81386;SDS011;70842;50.744;7.114;2024-03-17T03:22:37;15.35;;;14.25;;
81386;SDS011;70842;50.744;7.114;2024-03-17T03:25:03;11.52;;;10.55;;
81386;SDS011;70842;50.744;7.114;2024-03-17T03:27:29;14.02;;;13.02;;
81386;SDS011;70842;50.744;7.114;2024-03-17T03:29:54;12.90;;;12.00;;
81386;SDS011;70842;50.744;7.114;2024-03-17T03:32:21;13.00;;;12.10;;
81386;SDS011;70842;50.744;7.114;2024-03-17T03:34:47;10.63;;;9.75;;
81386;SDS011;70842;50.744;7.114;2024-03-17T03:37:12;10.02;;;9.05;;
81386;SDS011;70842;50.744;7.114;2024-03-17T03:39:38;10.55;;;9.45;;
81386;SDS011;70842;50.744;7.114;2024-03-17T03:42:04;11.80;;;10.90;;
81386;SDS011;70842;50.744;7.114;2024-03-17T03:44:29;11.70;;;9.85;;
81386;SDS011;70842;50.744;7.114;2024-03-17T03:46:55;9.90;;;9.00;;
81386;SDS011;70842;50.744;7.114;2024-03-17T03:49:24;12.45;;;11.02;;
81386;SDS011;70842;50.744;7.114;2024-03-17T03:51:50;11.73;;;10.15;;
81386;SDS011;70842;50.744;7.114;2024-03-17T03:54:15;12.77;;;11.75;;
81386;SDS011;70842;50.744;7.114;2024-03-17T03:56:41;12.85;;;11.85;;
81386;SDS011;70842;50.744;7.114;2024-03-17T03:59:06;9.77;;;8.38;;
81386;SDS011;70842;50.744;7.114;2024-03-17T04:01:32;9.45;;;8.48;;
81386;SDS011;70842;50.744;7.114;2024-03-17T04:03:57;11.00;;;10.10;;
81386;SDS011;70842;50.744;7.114;2024-03-17T04:06:23;10.02;;;9.23;;
81386;SDS011;70842;50.744;7.114;2024-03-17T04:08:48;11.82;;;10.90;;
81386;SDS011;70842;50.744;7.114;2024-03-17T04:11:14;9.57;;;8.70;;
81386;SDS011;70842;50.744;7.114;2024-03-17T04:13:40;9.10;;;8.30;;
81386;SDS011;70842;50.744;7.114;2024-03-17T04:16:06;10.05;;;9.15;;
81386;SDS011;70842;50.744;7.114;2024-03-17T04:18:33;9.68;;;8.85;;
81386;SDS011;70842;50.744;7.114;2024-03-17T04:21:03;8.98;;;8.10;;
81386;SDS011;70842;50.744;7.114;2024-03-17T04:25:59;11.60;;;10.77;;
81386;SDS011;70842;50.744;7.114;2024-03-17T04:28:25;9.40;;;8.60;;
81386;SDS011;70842;50.744;7.114;2024-03-17T04:30:51;12.02;;;11.00;;
81386;SDS011;70842;50.744;7.114;2024-03-17T04:33:17;8.82;;;8.02;;
81386;SDS011;70842;50.744;7.114;2024-03-17T04:35:42;9.30;;;8.23;;
81386;SDS011;70842;50.744;7.114;2024-03-17T04:38:08;10.02;;;9.20;;
81386;SDS011;70842;50.744;7.114;2024-03-17T04:40:34;9.35;;;8.57;;
81386;SDS011;70842;50.744;7.114;2024-03-17T04:43:07;10.57;;;9.68;;
81386;SDS011;70842;50.744;7.114;2024-03-17T04:45:33;13.25;;;12.35;;
81386;SDS011;70842;50.744;7.114;2024-03-17T04:47:58;10.57;;;9.65;;
81386;SDS011;70842;50.744;7.114;2024-03-17T04:50:24;8.95;;;8.07;;
81386;SDS011;70842;50.744;7.114;2024-03-17T04:52:51;9.10;;;7.65;;
81386;SDS011;70842;50.744;7.114;2024-03-17T04:55:17;9.57;;;8.77;;
81386;SDS011;70842;50.744;7.114;2024-03-17T04:57:44;8.40;;;7.60;;
81386;SDS011;70842;50.744;7.114;2024-03-17T05:00:10;11.25;;;8.82;;
81386;SDS011;70842;50.744;7.114;2024-03-17T05:02:37;11.32;;;10.43;;
81386;SDS011;70842;50.744;7.114;2024-03-17T05:05:04;10.55;;;9.73;;
81386;SDS011;70842;50.744;7.114;2024-03-17T05:07:30;9.00;;;8.20;;
81386;SDS011;70842;50.744;7.114;2024-03-17T05:09:56;10.55;;;9.57;;
81386;SDS011;70842;50.744;7.114;2024-03-17T05:12:22;9.55;;;8.82;;
81386;SDS011;70842;50.744;7.114;2024-03-17T05:14:48;8.95;;;8.15;;
81386;SDS011;70842;50.744;7.114;2024-03-17T05:17:13;10.57;;;9.57;;
81386;SDS011;70842;50.744;7.114;2024-03-17T05:19:39;11.25;;;10.13;;
81386;SDS011;70842;50.744;7.114;2024-03-17T05:22:04;9.18;;;8.27;;
81386;SDS011;70842;50.744;7.114;2024-03-17T05:24:30;9.95;;;9.07;;
81386;SDS011;70842;50.744;7.114;2024-03-17T05:26:55;8.05;;;7.25;;
81386;SDS011;70842;50.744;7.114;2024-03-17T05:29:21;9.55;;;8.85;;
81386;SDS011;70842;50.744;7.114;2024-03-17T05:31:48;14.23;;;13.05;;
81386;SDS011;70842;50.744;7.114;2024-03-17T05:34:14;11.02;;;9.98;;
81386;SDS011;70842;50.744;7.114;2024-03-17T05:36:40;9.48;;;8.50;;
81386;SDS011;70842;50.744;7.114;2024-03-17T05:39:05;10.70;;;7.25;;
81386;SDS011;70842;50.744;7.114;2024-03-17T05:41:31;10.30;;;9.30;;
81386;SDS011;70842;50.744;7.114;2024-03-17T05:43:56;8.27;;;7.55;;
81386;SDS011;70842;50.744;7.114;2024-03-17T05:46:23;11.15;;;10.35;;
81386;SDS011;70842;50.744;7.114;2024-03-17T05:48:53;8.32;;;7.57;;
81386;SDS011;70842;50.744;7.114;2024-03-17T05:51:19;10.13;;;9.10;;
81386;SDS011;70842;50.744;7.114;2024-03-17T05:53:44;9.15;;;8.40;;
81386;SDS011;70842;50.744;7.114;2024-03-17T05:56:10;9.48;;;8.68;;
81386;SDS011;70842;50.744;7.114;2024-03-17T05:58:38;8.13;;;7.18;;
81386;SDS011;70842;50.744;7.114;2024-03-17T06:01:04;9.98;;;9.18;;
81386;SDS011;70842;50.744;7.114;2024-03-17T06:03:32;7.78;;;7.15;;
81386;SDS011;70842;50.744;7.114;2024-03-17T06:06:01;9.13;;;8.32;;
81386;SDS011;70842;50.744;7.114;2024-03-17T06:08:28;9.23;;;8.43;;
81386;SDS011;70842;50.744;7.114;2024-03-17T06:10:53;7.63;;;6.80;;
81386;SDS011;70842;50.744;7.114;2024-03-17T06:13:19;7.40;;;6.70;;
81386;SDS011;70842;50.744;7.114;2024-03-17T06:15:45;8.90;;;8.20;;
81386;SDS011;70842;50.744;7.114;2024-03-17T06:18:14;12.63;;;11.75;;
81386;SDS011;70842;50.744;7.114;2024-03-17T06:20:43;8.48;;;7.68;;
81386;SDS011;70842;50.744;7.114;2024-03-17T06:25:39;8.50;;;7.68;;
81386;SDS011;70842;50.744;7.114;2024-03-17T06:28:09;9.70;;;8.68;;
81386;SDS011;70842;50.744;7.114;2024-03-17T06:31:00;9.65;;;8.85;;
81386;SDS011;70842;50.744;7.114;2024-03-17T06:33:25;12.68;;;11.68;;
81386;SDS011;70842;50.744;7.114;2024-03-17T06:35:51;11.68;;;10.73;;
81386;SDS011;70842;50.744;7.114;2024-03-17T06:38:16;9.82;;;8.98;;
81386;SDS011;70842;50.744;7.114;2024-03-17T06:40:47;8.25;;;7.35;;
81386;SDS011;70842;50.744;7.114;2024-03-17T06:43:14;11.85;;;9.63;;
81386;SDS011;70842;50.744;7.114;2024-03-17T06:45:39;9.07;;;8.27;;
81386;SDS011;70842;50.744;7.114;2024-03-17T06:48:05;9.88;;;9.07;;
81386;SDS011;70842;50.744;7.114;2024-03-17T06:50:32;9.52;;;8.70;;
81386;SDS011;70842;50.744;7.114;2024-03-17T06:52:57;7.93;;;6.70;;
81386;SDS011;70842;50.744;7.114;2024-03-17T06:55:23;8.90;;;7.97;;
81386;SDS011;70842;50.744;7.114;2024-03-17T06:57:49;7.40;;;6.32;;
81386;SDS011;70842;50.744;7.114;2024-03-17T07:00:15;9.23;;;8.35;;
81386;SDS011;70842;50.744;7.114;2024-03-17T07:02:42;11.38;;;10.43;;
81386;SDS011;70842;50.744;7.114;2024-03-17T07:05:18;8.75;;;8.05;;
81386;SDS011;70842;50.744;7.114;2024-03-17T07:07:44;7.70;;;6.97;;
81386;SDS011;70842;50.744;7.114;2024-03-17T07:10:10;8.65;;;7.82;;
81386;SDS011;70842;50.744;7.114;2024-03-17T07:12:37;8.20;;;7.40;;
81386;SDS011;70842;50.744;7.114;2024-03-17T07:15:02;9.65;;;8.85;;
81386;SDS011;70842;50.744;7.114;2024-03-17T07:17:28;8.90;;;8.20;;
81386;SDS011;70842;50.744;7.114;2024-03-17T07:19:54;9.18;;;8.43;;
81386;SDS011;70842;50.744;7.114;2024-03-17T07:22:20;9.32;;;8.52;;
81386;SDS011;70842;50.744;7.114;2024-03-17T07:24:48;13.45;;;12.45;;
81386;SDS011;70842;50.744;7.114;2024-03-17T07:27:15;7.95;;;7.25;;
81386;SDS011;70842;50.744;7.114;2024-03-17T07:29:41;8.27;;;7.57;;
81386;SDS011;70842;50.744;7.114;2024-03-17T07:32:06;9.25;;;8.55;;
81386;SDS011;70842;50.744;7.114;2024-03-17T07:34:32;9.63;;;7.30;;
81386;SDS011;70842;50.744;7.114;2024-03-17T07:36:58;11.70;;;10.70;;
81386;SDS011;70842;50.744;7.114;2024-03-17T07:39:31;11.40;;;10.55;;
81386;SDS011;70842;50.744;7.114;2024-03-17T07:42:00;11.65;;;10.75;;
81386;SDS011;70842;50.744;7.114;2024-03-17T07:44:29;8.60;;;7.85;;
81386;SDS011;70842;50.744;7.114;2024-03-17T07:46:58;9.45;;;8.70;;
81386;SDS011;70842;50.744;7.114;2024-03-17T07:49:25;9.25;;;8.35;;
81386;SDS011;70842;50.744;7.114;2024-03-17T07:51:50;8.45;;;6.32;;
81386;SDS011;70842;50.744;7.114;2024-03-17T07:54:16;9.25;;;8.45;;
81386;SDS011;70842;50.744;7.114;2024-03-17T07:56:41;9.07;;;8.27;;
81386;SDS011;70842;50.744;7.114;2024-03-17T07:59:07;9.00;;;8.18;;
81386;SDS011;70842;50.744;7.114;2024-03-17T08:01:38;9.00;;;8.20;;
81386;SDS011;70842;50.744;7.114;2024-03-17T08:04:04;8.45;;;7.40;;
81386;SDS011;70842;50.744;7.114;2024-03-17T08:06:29;7.57;;;6.72;;
81386;SDS011;70842;50.744;7.114;2024-03-17T08:08:55;13.45;;;12.40;;
81386;SDS011;70842;50.744;7.114;2024-03-17T08:11:20;9.18;;;8.40;;
81386;SDS011;70842;50.744;7.114;2024-03-17T08:13:46;9.40;;;8.60;;
81386;SDS011;70842;50.744;7.114;2024-03-17T08:16:12;9.55;;;8.73;;
81386;SDS011;70842;50.744;7.114;2024-03-17T08:18:39;6.80;;;6.20;;
81386;SDS011;70842;50.744;7.114;2024-03-17T08:21:05;9.75;;;8.95;;
81386;SDS011;70842;50.744;7.114;2024-03-17T08:23:31;8.50;;;7.80;;
81386;SDS011;70842;50.744;7.114;2024-03-17T08:25:59;8.25;;;7.45;;
81386;SDS011;70842;50.744;7.114;2024-03-17T08:28:26;9.10;;;8.40;;
81386;SDS011;70842;50.744;7.114;2024-03-17T08:33:23;8.02;;;7.22;;
81386;SDS011;70842;50.744;7.114;2024-03-17T08:35:53;7.32;;;6.63;;
81386;SDS011;70842;50.744;7.114;2024-03-17T08:38:28;7.47;;;6.78;;
81386;SDS011;70842;50.744;7.114;2024-03-17T08:40:55;8.73;;;8.05;;
81386;SDS011;70842;50.744;7.114;2024-03-17T08:43:21;10.50;;;9.70;;
81386;SDS011;70842;50.744;7.114;2024-03-17T08:46:01;6.97;;;6.35;;
81386;SDS011;70842;50.744;7.114;2024-03-17T08:48:34;7.75;;;7.05;;
81386;SDS011;70842;50.744;7.114;2024-03-17T08:51:02;7.93;;;7.10;;
81386;SDS011;70842;50.744;7.114;2024-03-17T08:53:28;7.90;;;7.30;;
81386;SDS011;70842;50.744;7.114;2024-03-17T08:55:54;6.68;;;6.07;;
81386;SDS011;70842;50.744;7.114;2024-03-17T08:58:21;9.10;;;8.13;;
81386;SDS011;70842;50.744;7.114;2024-03-17T09:00:47;7.47;;;6.80;;
81386;SDS011;70842;50.744;7.114;2024-03-17T09:03:12;7.45;;;6.35;;
81386;SDS011;70842;50.744;7.114;2024-03-17T09:05:39;5.80;;;5.30;;
81386;SDS011;70842;50.744;7.114;2024-03-17T09:08:06;7.82;;;7.20;;
81386;SDS011;70842;50.744;7.114;2024-03-17T09:10:46;6.57;;;5.78;;
81386;SDS011;70842;50.744;7.114;2024-03-17T09:13:13;6.97;;;5.68;;
81386;SDS011;70842;50.744;7.114;2024-03-17T09:15:49;7.07;;;6.28;;
81386;SDS011;70842;50.744;7.114;2024-03-17T09:18:19;8.35;;;7.65;;
81386;SDS011;70842;50.744;7.114;2024-03-17T09:20:44;6.80;;;5.70;;
81386;SDS011;70842;50.744;7.114;2024-03-17T09:23:11;7.30;;;6.78;;
81386;SDS011;70842;50.744;7.114;2024-03-17T09:25:36;7.47;;;6.68;;
81386;SDS011;70842;50.744;7.114;2024-03-17T09:28:02;6.78;;;6.18;;
81386;SDS011;70842;50.744;7.114;2024-03-17T09:30:27;8.27;;;7.53;;
81386;SDS011;70842;50.744;7.114;2024-03-17T09:32:53;8.15;;;7.47;;
81386;SDS011;70842;50.744;7.114;2024-03-17T09:35:18;9.27;;;8.68;;
81386;SDS011;70842;50.744;7.114;2024-03-17T09:37:44;7.70;;;7.15;;
81386;SDS011;70842;50.744;7.114;2024-03-17T09:40:13;9.25;;;8.60;;
81386;SDS011;70842;50.744;7.114;2024-03-17T09:42:40;6.65;;;6.03;;
81386;SDS011;70842;50.744;7.114;2024-03-17T09:45:11;8.52;;;7.90;;
81386;SDS011;70842;50.744;7.114;2024-03-17T09:47:38;6.05;;;5.45;;
81386;SDS011;70842;50.744;7.114;2024-03-17T09:50:07;7.60;;;7.00;;
81386;SDS011;70842;50.744;7.114;2024-03-17T09:52:38;5.90;;;5.25;;
81386;SDS011;70842;50.744;7.114;2024-03-17T09:57:40;8.32;;;7.65;;
81386;SDS011;70842;50.744;7.114;2024-03-17T10:00:09;8.23;;;7.50;;
81386;SDS011;70842;50.744;7.114;2024-03-17T10:02:46;8.63;;;7.85;;
81386;SDS011;70842;50.744;7.114;2024-03-17T10:05:22;6.47;;;5.97;;
81386;SDS011;70842;50.744;7.114;2024-03-17T10:07:50;5.60;;;5.03;;
81386;SDS011;70842;50.744;7.114;2024-03-17T10:10:17;8.82;;;8.02;;
81386;SDS011;70842;50.744;7.114;2024-03-17T10:12:44;5.93;;;5.43;;
81386;SDS011;70842;50.744;7.114;2024-03-17T10:15:15;5.50;;;5.00;;
81386;SDS011;70842;50.744;7.114;2024-03-17T10:17:40;7.38;;;6.78;;
81386;SDS011;70842;50.744;7.114;2024-03-17T10:20:12;6.75;;;6.13;;
81386;SDS011;70842;50.744;7.114;2024-03-17T10:22:58;7.32;;;6.60;;
81386;SDS011;70842;50.744;7.114;2024-03-17T10:25:25;5.38;;;4.88;;
81386;SDS011;70842;50.744;7.114;2024-03-17T10:27:51;5.70;;;5.20;;
81386;SDS011;70842;50.744;7.114;2024-03-17T10:30:18;5.50;;;5.05;;
81386;SDS011;70842;50.744;7.114;2024-03-17T10:32:57;6.70;;;6.00;;
81386;SDS011;70842;50.744;7.114;2024-03-17T10:37:58;7.30;;;5.78;;
81386;SDS011;70842;50.744;7.114;2024-03-17T10:42:55;5.80;;;5.30;;
81386;SDS011;70842;50.744;7.114;2024-03-17T10:45:21;5.63;;;5.10;;
81386;SDS011;70842;50.744;7.114;2024-03-17T10:47:48;6.68;;;6.10;;
81386;SDS011;70842;50.744;7.114;2024-03-17T10:50:21;7.85;;;7.15;;
81386;SDS011;70842;50.744;7.114;2024-03-17T10:52:48;7.97;;;7.38;;
81386;SDS011;70842;50.744;7.114;2024-03-17T10:55:25;6.82;;;6.22;;
81386;SDS011;70842;50.744;7.114;2024-03-17T10:57:52;7.72;;;6.93;;
81386;SDS011;70842;50.744;7.114;2024-03-17T11:00:22;6.20;;;5.60;;
81386;SDS011;70842;50.744;7.114;2024-03-17T11:02:48;4.78;;;4.38;;
81386;SDS011;70842;50.744;7.114;2024-03-17T11:07:48;5.70;;;4.80;;
81386;SDS011;70842;50.744;7.114;2024-03-17T11:10:16;5.82;;;5.32;;
81386;SDS011;70842;50.744;7.114;2024-03-17T11:12:54;8.65;;;8.05;;
81386;SDS011;70842;50.744;7.114;2024-03-17T11:18:41;5.72;;;5.22;;
81386;SDS011;70842;50.744;7.114;2024-03-17T11:20:42;4.45;;;3.95;;
81386;SDS011;70842;50.744;7.114;2024-03-17T11:23:29;5.95;;;5.35;;
81386;SDS011;70842;50.744;7.114;2024-03-17T11:25:55;8.50;;;7.80;;
81386;SDS011;70842;50.744;7.114;2024-03-17T11:34:01;5.80;;;5.25;;
81386;SDS011;70842;50.744;7.114;2024-03-17T11:52:11;6.95;;;6.25;;
81386;SDS011;70842;50.744;7.114;2024-03-17T11:54:42;5.13;;;4.57;;
81386;SDS011;70842;50.744;7.114;2024-03-17T11:57:13;6.00;;;5.40;;
81386;SDS011;70842;50.744;7.114;2024-03-17T11:59:44;5.70;;;4.50;;
81386;SDS011;70842;50.744;7.114;2024-03-17T12:02:31;6.82;;;6.13;;
81386;SDS011;70842;50.744;7.114;2024-03-17T12:04:57;6.00;;;5.20;;
81386;SDS011;70842;50.744;7.114;2024-03-17T12:07:25;6.97;;;6.28;;
81386;SDS011;70842;50.744;7.114;2024-03-17T12:09:53;7.03;;;6.15;;
81386;SDS011;70842;50.744;7.114;2024-03-17T12:12:26;5.75;;;4.20;;
81386;SDS011;70842;50.744;7.114;2024-03-17T12:15:02;7.35;;;6.75;;
81386;SDS011;70842;50.744;7.114;2024-03-17T12:17:29;6.25;;;4.30;;
81386;SDS011;70842;50.744;7.114;2024-03-17T12:19:55;6.60;;;6.10;;
81386;SDS011;70842;50.744;7.114;2024-03-17T12:22:24;5.63;;;5.13;;
81386;SDS011;70842;50.744;7.114;2024-03-17T12:24:51;6.55;;;4.95;;
81386;SDS011;70842;50.744;7.114;2024-03-17T12:27:22;6.82;;;6.28;;
81386;SDS011;70842;50.744;7.114;2024-03-17T12:29:48;6.50;;;5.90;;
81386;SDS011;70842;50.744;7.114;2024-03-17T12:32:16;6.35;;;5.75;;
81386;SDS011;70842;50.744;7.114;2024-03-17T12:34:43;4.95;;;4.45;;
81386;SDS011;70842;50.744;7.114;2024-03-17T12:39:46;5.22;;;4.75;;
81386;SDS011;70842;50.744;7.114;2024-03-17T12:42:24;6.75;;;5.78;;
81386;SDS011;70842;50.744;7.114;2024-03-17T12:44:52;6.25;;;5.70;;
81386;SDS011;70842;50.744;7.114;2024-03-17T12:47:30;7.50;;;6.60;;
81386;SDS011;70842;50.744;7.114;2024-03-17T12:49:57;6.90;;;5.85;;
81386;SDS011;70842;50.744;7.114;2024-03-17T12:52:25;6.35;;;5.40;;
81386;SDS011;70842;50.744;7.114;2024-03-17T12:55:01;5.43;;;4.63;;
81386;SDS011;70842;50.744;7.114;2024-03-17T13:00:45;5.55;;;5.00;;
81386;SDS011;70842;50.744;7.114;2024-03-17T13:03:21;7.72;;;7.13;;
81386;SDS011;70842;50.744;7.114;2024-03-17T13:05:50;5.35;;;4.68;;
81386;SDS011;70842;50.744;7.114;2024-03-17T13:08:16;5.65;;;5.13;;
81386;SDS011;70842;50.744;7.114;2024-03-17T13:10:42;6.40;;;5.85;;
81386;SDS011;70842;50.744;7.114;2024-03-17T13:13:09;6.65;;;6.05;;
81386;SDS011;70842;50.744;7.114;2024-03-17T13:15:36;6.35;;;5.82;;
81386;SDS011;70842;50.744;7.114;2024-03-17T13:18:02;6.03;;;5.40;;
81386;SDS011;70842;50.744;7.114;2024-03-17T13:20:29;6.63;;;5.95;;
81386;SDS011;70842;50.744;7.114;2024-03-17T13:22:55;8.35;;;7.63;;
81386;SDS011;70842;50.744;7.114;2024-03-17T13:25:23;6.82;;;6.10;;
81386;SDS011;70842;50.744;7.114;2024-03-17T13:27:51;6.38;;;5.32;;
81386;SDS011;70842;50.744;7.114;2024-03-17T13:30:18;6.65;;;5.97;;
81386;SDS011;70842;50.744;7.114;2024-03-17T13:32:46;7.05;;;5.95;;
81386;SDS011;70842;50.744;7.114;2024-03-17T13:35:16;5.63;;;5.10;;
81386;SDS011;70842;50.744;7.114;2024-03-17T13:37:47;5.65;;;4.38;;
81386;SDS011;70842;50.744;7.114;2024-03-17T13:40:17;6.18;;;5.22;;
81386;SDS011;70842;50.744;7.114;2024-03-17T13:42:44;6.93;;;4.72;;
81386;SDS011;70842;50.744;7.114;2024-03-17T13:45:14;5.40;;;4.82;;
81386;SDS011;70842;50.744;7.114;2024-03-17T13:47:40;7.60;;;6.15;;
81386;SDS011;70842;50.744;7.114;2024-03-17T13:50:07;6.93;;;6.32;;
81386;SDS011;70842;50.744;7.114;2024-03-17T13:52:36;6.43;;;5.82;;
81386;SDS011;70842;50.744;7.114;2024-03-17T13:55:03;5.78;;;5.35;;
81386;SDS011;70842;50.744;7.114;2024-03-17T13:57:34;7.60;;;5.97;;
81386;SDS011;70842;50.744;7.114;2024-03-17T14:00:00;7.55;;;6.95;;
81386;SDS011;70842;50.744;7.114;2024-03-17T14:02:26;7.15;;;6.53;;
81386;SDS011;70842;50.744;7.114;2024-03-17T14:04:51;5.25;;;4.65;;
81386;SDS011;70842;50.744;7.114;2024-03-17T14:07:17;6.18;;;5.30;;
81386;SDS011;70842;50.744;7.114;2024-03-17T14:09:42;7.15;;;6.57;;
81386;SDS011;70842;50.744;7.114;2024-03-17T14:12:08;5.93;;;5.38;;
81386;SDS011;70842;50.744;7.114;2024-03-17T14:14:33;7.32;;;6.63;;
81386;SDS011;70842;50.744;7.114;2024-03-17T14:16:59;6.10;;;5.60;;
81386;SDS011;70842;50.744;7.114;2024-03-17T14:19:25;7.55;;;6.88;;
81386;SDS011;70842;50.744;7.114;2024-03-17T14:21:50;7.25;;;6.65;;
81386;SDS011;70842;50.744;7.114;2024-03-17T14:24:16;6.90;;;6.30;;
81386;SDS011;70842;50.744;7.114;2024-03-17T14:26:42;7.22;;;6.60;;
81386;SDS011;70842;50.744;7.114;2024-03-17T14:29:07;6.13;;;5.63;;
81386;SDS011;70842;50.744;7.114;2024-03-17T14:31:33;9.10;;;8.35;;
81386;SDS011;70842;50.744;7.114;2024-03-17T14:34:04;5.03;;;4.45;;
81386;SDS011;70842;50.744;7.114;2024-03-17T14:36:30;6.40;;;5.75;;
81386;SDS011;70842;50.744;7.114;2024-03-17T14:38:58;6.00;;;5.30;;
81386;SDS011;70842;50.744;7.114;2024-03-17T14:41:29;6.97;;;6.38;;
81386;SDS011;70842;50.744;7.114;2024-03-17T14:43:56;8.65;;;7.93;;
81386;SDS011;70842;50.744;7.114;2024-03-17T14:46:22;4.22;;;3.80;;
81386;SDS011;70842;50.744;7.114;2024-03-17T14:48:49;5.95;;;5.43;;
81386;SDS011;70842;50.744;7.114;2024-03-17T14:51:16;6.93;;;6.22;;
81386;SDS011;70842;50.744;7.114;2024-03-17T14:53:42;7.00;;;6.20;;
81386;SDS011;70842;50.744;7.114;2024-03-17T14:56:16;6.13;;;5.63;;
81386;SDS011;70842;50.744;7.114;2024-03-17T14:58:42;6.82;;;6.22;;
81386;SDS011;70842;50.744;7.114;2024-03-17T15:01:08;6.32;;;5.72;;
81386;SDS011;70842;50.744;7.114;2024-03-17T15:03:37;7.18;;;6.53;;
81386;SDS011;70842;50.744;7.114;2024-03-17T15:06:08;6.50;;;6.00;;
81386;SDS011;70842;50.744;7.114;2024-03-17T15:08:34;6.10;;;5.57;;
81386;SDS011;70842;50.744;7.114;2024-03-17T15:11:00;6.03;;;5.53;;
81386;SDS011;70842;50.744;7.114;2024-03-17T15:13:25;6.78;;;6.18;;
81386;SDS011;70842;50.744;7.114;2024-03-17T15:15:52;5.75;;;4.60;;
81386;SDS011;70842;50.744;7.114;2024-03-17T15:18:20;6.95;;;6.30;;
81386;SDS011;70842;50.744;7.114;2024-03-17T15:20:52;6.72;;;6.10;;
81386;SDS011;70842;50.744;7.114;2024-03-17T15:23:20;7.55;;;6.80;;
81386;SDS011;70842;50.744;7.114;2024-03-17T15:25:46;6.13;;;5.38;;
81386;SDS011;70842;50.744;7.114;2024-03-17T15:28:11;7.78;;;7.07;;
81386;SDS011;70842;50.744;7.114;2024-03-17T15:30:38;5.43;;;4.93;;
81386;SDS011;70842;50.744;7.114;2024-03-17T15:33:04;6.20;;;5.68;;